Hlavní strana
METAR-TAF:

METAR-TAF

Letiště :

Terre Haute, Indiana, Spojené státy americké

zeměpisná šířka: 39-26-30N, zeměpisná délka: 087-19-31W, výška: 178 m

Aktuální stav počasí

Zpráva byla vytvořena před 54 minutami, v 08:53 UTC
Severoseverozápadní vítr 5 kt
Teplota 14°C
Vlhkost vzduchu 88%
Tlak 1020 hPa
Viditelnost: 16.1 km
Jasno

METAR: KHUF 300853Z AUTO 33005KT 10SM CLR 14/12 A3012 RMK AO2 SLP198 T01390122 53008

Čas: 05:47 (09:47 UTC)

Předpověď počasí

Zpráva byla vytvořena před 4 hodinami a 27 minutami, v 05:20 UTC
Předpověď platná od 30 v 06 UTC do 31 v 06 UTC
Severoseverozápadní vítr 5 kt
Viditelnost: 10 km
Skoro jasno ve výšce 5000 ft
Od 30 v 1600 UTC
Severní vítr 7 kt
Viditelnost: 10 km
Polojasno ve výšce 5000 ft
Od 31 v 0500 UTC
Severoseverovýchodní vítr 5 kt
Viditelnost: 10 km
Skoro jasno ve výšce 20000 ft

TAF: KHUF 300520Z 3006/3106 33005KT P6SM FEW050 FM301600 35007KT P6SM SCT050 FM310500 02005KT P6SM FEW200

Stav a předpovědi počasí z více než 4 000 letišť (zprávy METAR a TAF).

Červené a žluté tečky na mapě představují dostupné meteorologické stanice.

Když kurzor umístíte na tečku, zobrazí se název stanice.

Pak kliknutím zobrazíte stav a předpověď počasí.

Chcete-li změnit mapu, kliknutím na zelené tlačítko se znaménkem +mapu přiblížíte, kliknutím na zelené tlačítko se znaménkem – mapu oddálíte a kliknutím na zelené šipky přejdete na sousední mapy.


METAR-TAF: